Time;durP1;ratioP1;P1;durP2;ratioP2;P2;SDS_P1;SDS_P2;PMS_P1;PMS_P2;Temp;Humidity;BMP_temperature;BMP_pressure;BME280_temperature;BME280_humidity;BME280_pressure;Samples;Min_cycle;Max_cycle;Signal;HPM_P1;HPM_P2
2021/09/06 00:00:29;;;;;;;10.00;4.82;;;;;;;;;;4922635;29;20012;-89
2021/09/06 00:02:56;;;;;;;9.35;5.07;;;;;;;;;;4922579;29;20039;-89
2021/09/06 00:05:22;;;;;;;9.98;4.60;;;;;;;;;;4924527;29;20036;-93
2021/09/06 00:07:48;;;;;;;8.70;4.40;;;;;;;;;;4922069;29;20597;-89
2021/09/06 00:10:21;;;;;;;7.15;4.10;;;;;;;;;;4922318;29;20473;-89
2021/09/06 00:12:48;;;;;;;10.80;4.63;;;;;;;;;;4922280;29;20038;-89
2021/09/06 00:15:14;;;;;;;11.70;4.18;;;;;;;;;;4922328;29;20058;-89
2021/09/06 00:17:41;;;;;;;8.95;3.85;;;;;;;;;;4922549;29;20034;-89
2021/09/06 00:20:07;;;;;;;6.63;3.72;;;;;;;;;;4922752;29;20028;-89
2021/09/06 00:22:34;;;;;;;8.43;4.63;;;;;;;;;;4929554;29;20038;-89
2021/09/06 00:25:00;;;;;;;7.35;4.00;;;;;;;;;;4929508;29;20114;-89
2021/09/06 00:27:26;;;;;;;11.18;4.15;;;;;;;;;;4933407;29;20059;-89
2021/09/06 00:29:53;;;;;;;8.07;4.18;;;;;;;;;;4923016;29;20028;-89
2021/09/06 00:32:19;;;;;;;8.13;4.07;;;;;;;;;;4922090;29;20027;-89
2021/09/06 00:34:45;;;;;;;9.27;3.90;;;;;;;;;;4921464;29;20044;-89
2021/09/06 00:37:12;;;;;;;5.97;3.10;;;;;;;;;;4921680;29;20078;-89
2021/09/06 00:39:38;;;;;;;7.35;3.80;;;;;;;;;;4922745;29;20063;-89
2021/09/06 00:42:05;;;;;;;11.18;4.40;;;;;;;;;;4921152;29;20039;-88
2021/09/06 00:44:31;;;;;;;8.32;3.88;;;;;;;;;;4920995;29;20103;-89
2021/09/06 00:47:00;;;;;;;8.25;4.18;;;;;;;;;;4920952;29;20031;-89
2021/09/06 00:49:27;;;;;;;10.02;4.00;;;;;;;;;;4921976;29;20063;-88
2021/09/06 00:51:54;;;;;;;7.88;3.75;;;;;;;;;;4921509;29;20063;-89
2021/09/06 00:54:20;;;;;;;8.00;3.22;;;;;;;;;;4921102;29;20047;-92
2021/09/06 00:56:46;;;;;;;8.60;3.80;;;;;;;;;;4921581;29;20028;-91
2021/09/06 00:59:12;;;;;;;8.15;3.45;;;;;;;;;;4920879;29;20515;-91
2021/09/06 01:01:39;;;;;;;7.70;3.95;;;;;;;;;;4921650;29;20028;-89
2021/09/06 01:04:05;;;;;;;7.55;3.55;;;;;;;;;;4920725;29;20028;-88
2021/09/06 01:06:32;;;;;;;7.70;3.83;;;;;;;;;;4920837;29;20026;-89
2021/09/06 01:08:58;;;;;;;7.97;3.45;;;;;;;;;;4920566;29;20046;-88
2021/09/06 01:11:24;;;;;;;6.97;3.40;;;;;;;;;;4920767;29;20217;-89
2021/09/06 01:13:51;;;;;;;8.75;3.75;;;;;;;;;;4920321;29;20532;-89
2021/09/06 01:16:18;;;;;;;6.93;3.75;;;;;;;;;;4922946;29;20027;-91
2021/09/06 01:18:44;;;;;;;7.95;3.55;;;;;;;;;;4920915;29;20051;-91
2021/09/06 01:21:14;;;;;;;9.20;3.78;;;;;;;;;;4922399;29;20034;-91
2021/09/06 01:23:41;;;;;;;8.50;2.72;;;;;;;;;;4920749;29;20062;-88
2021/09/06 01:26:07;;;;;;;8.88;3.25;;;;;;;;;;4921344;29;20144;-92
2021/09/06 01:28:34;;;;;;;7.88;3.50;;;;;;;;;;4920403;29;20098;-89
2021/09/06 01:31:00;;;;;;;8.55;3.28;;;;;;;;;;4920431;29;20058;-90
2021/09/06 01:33:27;;;;;;;7.22;3.20;;;;;;;;;;4922695;29;20071;-89
2021/09/06 01:35:53;;;;;;;6.13;3.15;;;;;;;;;;4921814;29;20074;-89
2021/09/06 01:38:20;;;;;;;8.13;3.38;;;;;;;;;;4920210;29;20028;-89
2021/09/06 01:40:46;;;;;;;7.05;3.35;;;;;;;;;;4920246;29;20134;-92
2021/09/06 01:43:12;;;;;;;8.93;3.15;;;;;;;;;;4920433;29;20171;-89
2021/09/06 01:45:38;;;;;;;6.35;2.85;;;;;;;;;;4920319;29;20035;-92
2021/09/06 01:48:05;;;;;;;7.03;3.38;;;;;;;;;;4920343;29;20370;-93
2021/09/06 01:50:31;;;;;;;10.80;4.03;;;;;;;;;;4920539;29;20047;-91
2021/09/06 01:52:57;;;;;;;9.30;3.08;;;;;;;;;;4920387;29;20034;-89
2021/09/06 01:55:24;;;;;;;9.18;3.72;;;;;;;;;;4921337;29;20036;-89
2021/09/06 01:57:50;;;;;;;8.10;3.15;;;;;;;;;;4920688;29;20027;-89
2021/09/06 02:00:18;;;;;;;7.97;3.45;;;;;;;;;;4922645;29;20138;-91
2021/09/06 02:02:45;;;;;;;6.30;3.20;;;;;;;;;;4919985;29;20488;-89
2021/09/06 02:05:11;;;;;;;6.53;3.38;;;;;;;;;;4920666;29;20052;-89
2021/09/06 02:07:38;;;;;;;9.45;3.63;;;;;;;;;;4920519;29;20123;-89
2021/09/06 02:10:05;;;;;;;7.10;3.22;;;;;;;;;;4922196;29;20024;-89
2021/09/06 02:12:31;;;;;;;6.80;3.65;;;;;;;;;;4921769;29;20493;-89
2021/09/06 02:14:58;;;;;;;6.60;3.03;;;;;;;;;;4922312;29;20039;-89
2021/09/06 02:17:24;;;;;;;5.57;3.45;;;;;;;;;;4920430;29;20028;-92
2021/09/06 02:19:50;;;;;;;6.53;3.50;;;;;;;;;;4919871;29;20507;-89
2021/09/06 02:22:17;;;;;;;8.25;3.65;;;;;;;;;;4920109;29;20186;-89
2021/09/06 02:24:43;;;;;;;6.75;3.28;;;;;;;;;;4920452;29;20034;-89
2021/09/06 02:27:10;;;;;;;7.28;3.30;;;;;;;;;;4921478;29;20515;-89
2021/09/06 02:29:36;;;;;;;7.97;3.55;;;;;;;;;;4921196;29;20027;-89
2021/09/06 02:32:02;;;;;;;10.07;3.47;;;;;;;;;;4920877;29;20040;-89
2021/09/06 02:34:29;;;;;;;6.03;2.80;;;;;;;;;;4919722;29;20036;-89
2021/09/06 02:36:55;;;;;;;6.82;2.55;;;;;;;;;;4921128;29;20473;-89
2021/09/06 02:39:22;;;;;;;4.72;2.35;;;;;;;;;;4923094;29;20052;-90
2021/09/06 02:41:48;;;;;;;10.00;3.00;;;;;;;;;;4923296;29;20035;-89
2021/09/06 02:44:15;;;;;;;6.78;2.65;;;;;;;;;;4941469;29;20059;-89
2021/09/06 02:46:41;;;;;;;8.88;3.88;;;;;;;;;;4923970;29;20028;-89
2021/09/06 02:49:07;;;;;;;7.55;2.92;;;;;;;;;;4924272;29;20070;-89
2021/09/06 02:51:34;;;;;;;5.97;2.53;;;;;;;;;;4922998;29;20063;-89
2021/09/06 02:54:00;;;;;;;5.47;2.30;;;;;;;;;;4923909;29;20036;-89
2021/09/06 02:56:26;;;;;;;4.82;1.95;;;;;;;;;;4922889;29;20031;-89
2021/09/06 02:58:54;;;;;;;8.70;2.65;;;;;;;;;;4922876;29;20064;-89
2021/09/06 03:01:20;;;;;;;5.20;2.45;;;;;;;;;;4922812;29;20038;-91
2021/09/06 03:03:46;;;;;;;7.97;2.50;;;;;;;;;;4922771;29;20058;-91
2021/09/06 03:06:12;;;;;;;5.18;2.30;;;;;;;;;;4923279;29;20028;-91
2021/09/06 03:08:38;;;;;;;5.80;2.17;;;;;;;;;;4923027;29;20043;-89
2021/09/06 03:11:04;;;;;;;5.20;2.58;;;;;;;;;;4924187;29;20118;-92
2021/09/06 03:13:31;;;;;;;4.50;2.00;;;;;;;;;;4922723;29;20114;-89
2021/09/06 03:15:57;;;;;;;5.53;2.10;;;;;;;;;;4923479;29;20044;-89
2021/09/06 03:18:23;;;;;;;5.38;2.20;;;;;;;;;;4922478;29;20056;-88
2021/09/06 03:20:50;;;;;;;6.55;2.10;;;;;;;;;;4923356;29;20028;-89
2021/09/06 03:23:16;;;;;;;5.50;2.20;;;;;;;;;;4922305;29;20585;-89
2021/09/06 03:25:42;;;;;;;5.82;2.10;;;;;;;;;;4922515;29;20119;-91
2021/09/06 03:28:08;;;;;;;5.60;2.05;;;;;;;;;;4922468;29;20028;-92
2021/09/06 03:30:35;;;;;;;5.55;2.70;;;;;;;;;;4922495;29;20023;-91
2021/09/06 03:33:01;;;;;;;5.88;2.28;;;;;;;;;;4925308;29;20054;-91
2021/09/06 03:35:27;;;;;;;5.70;2.45;;;;;;;;;;4922555;29;20024;-90
2021/09/06 03:37:53;;;;;;;6.18;1.65;;;;;;;;;;4925005;29;20031;-92
2021/09/06 03:40:19;;;;;;;5.03;2.65;;;;;;;;;;4923496;29;20446;-88
2021/09/06 03:42:46;;;;;;;9.68;2.67;;;;;;;;;;4922034;29;20019;-89
2021/09/06 03:45:12;;;;;;;6.90;2.40;;;;;;;;;;4922070;29;20030;-92
2021/09/06 03:47:38;;;;;;;6.45;2.03;;;;;;;;;;4922556;29;20032;-89
2021/09/06 03:50:05;;;;;;;4.85;2.10;;;;;;;;;;4922968;29;20031;-88
2021/09/06 03:52:31;;;;;;;10.30;2.30;;;;;;;;;;4921920;29;20063;-91
2021/09/06 03:54:58;;;;;;;6.28;2.72;;;;;;;;;;4922506;29;20142;-89
2021/09/06 03:57:25;;;;;;;4.20;2.25;;;;;;;;;;4924094;29;20075;-89
2021/09/06 03:59:52;;;;;;;7.38;2.83;;;;;;;;;;4922421;29;20048;-90
2021/09/06 04:02:18;;;;;;;7.00;2.70;;;;;;;;;;4922689;29;20027;-88
2021/09/06 04:04:44;;;;;;;6.03;2.50;;;;;;;;;;4924260;29;20111;-90
2021/09/06 04:07:10;;;;;;;5.78;2.60;;;;;;;;;;4921919;29;20378;-88
2021/09/06 04:09:37;;;;;;;10.02;2.10;;;;;;;;;;4922594;29;20031;-89
2021/09/06 04:12:04;;;;;;;9.90;1.73;;;;;;;;;;4924402;29;20476;-89
2021/09/06 04:14:32;;;;;;;3.97;1.83;;;;;;;;;;4923939;29;20043;-91
2021/09/06 04:16:59;;;;;;;5.47;1.70;;;;;;;;;;4922469;29;20020;-89
2021/09/06 04:19:30;;;;;;;4.85;1.58;;;;;;;;;;4922851;29;20066;-89
2021/09/06 04:21:57;;;;;;;4.82;1.98;;;;;;;;;;4922891;29;20023;-89
2021/09/06 04:24:23;;;;;;;3.38;1.83;;;;;;;;;;4922385;29;20027;-91
2021/09/06 04:26:50;;;;;;;5.00;1.55;;;;;;;;;;4921728;29;20019;-89
2021/09/06 04:29:17;;;;;;;5.50;1.88;;;;;;;;;;4921967;29;20036;-89
2021/09/06 04:31:43;;;;;;;6.63;2.17;;;;;;;;;;4923350;29;20098;-88
2021/09/06 04:34:10;;;;;;;4.95;1.58;;;;;;;;;;4927702;29;20050;-90
2021/09/06 04:36:36;;;;;;;2.97;1.60;;;;;;;;;;4930551;29;20484;-89
2021/09/06 04:39:03;;;;;;;5.75;1.90;;;;;;;;;;4925867;29;20054;-90
2021/09/06 04:41:29;;;;;;;6.70;1.85;;;;;;;;;;4922140;29;20028;-89
2021/09/06 04:43:56;;;;;;;4.10;1.95;;;;;;;;;;4921323;29;20031;-89
2021/09/06 04:46:22;;;;;;;4.15;1.95;;;;;;;;;;4921979;29;20055;-89
2021/09/06 04:48:48;;;;;;;3.80;1.67;;;;;;;;;;4921169;29;20028;-89
2021/09/06 04:51:15;;;;;;;6.95;2.00;;;;;;;;;;4921866;29;20028;-89
2021/09/06 04:53:42;;;;;;;6.00;2.05;;;;;;;;;;4920981;29;20032;-89
2021/09/06 04:56:08;;;;;;;7.68;2.05;;;;;;;;;;4922446;29;20079;-90
2021/09/06 04:58:35;;;;;;;5.40;1.88;;;;;;;;;;4921597;29;20034;-91
2021/09/06 05:01:01;;;;;;;4.75;1.92;;;;;;;;;;4913613;29;20059;-87
2021/09/06 05:03:29;;;;;;;5.18;2.03;;;;;;;;;;4897100;29;20051;-90
2021/09/06 05:05:55;;;;;;;5.68;2.35;;;;;;;;;;4900412;29;20040;-90
2021/09/06 05:08:21;;;;;;;4.80;1.92;;;;;;;;;;4901503;29;20036;-90
2021/09/06 05:10:47;;;;;;;4.65;2.15;;;;;;;;;;4901481;29;20040;-89
2021/09/06 05:13:14;;;;;;;5.15;2.17;;;;;;;;;;4918392;29;20110;-90
2021/09/06 05:15:40;;;;;;;6.03;2.00;;;;;;;;;;4921940;29;20043;-90
2021/09/06 05:18:06;;;;;;;4.20;2.38;;;;;;;;;;4920761;29;20110;-93
2021/09/06 05:20:32;;;;;;;4.72;2.22;;;;;;;;;;4937334;29;20031;-93
2021/09/06 05:22:59;;;;;;;6.65;1.77;;;;;;;;;;4920470;29;20027;-90
2021/09/06 05:25:25;;;;;;;7.03;1.98;;;;;;;;;;4901816;29;20123;-92
2021/09/06 05:27:51;;;;;;;3.35;1.40;;;;;;;;;;4901856;29;20028;-91
2021/09/06 05:30:17;;;;;;;3.42;1.83;;;;;;;;;;4903958;29;20084;-92
2021/09/06 05:32:43;;;;;;;5.82;2.22;;;;;;;;;;4903756;29;20032;-91
2021/09/06 05:35:09;;;;;;;7.20;2.20;;;;;;;;;;4901162;29;20048;-92
2021/09/06 05:37:35;;;;;;;6.32;1.90;;;;;;;;;;4904296;29;20028;-91
2021/09/06 05:40:02;;;;;;;5.90;1.83;;;;;;;;;;4903074;29;20076;-91
2021/09/06 05:42:29;;;;;;;4.78;1.75;;;;;;;;;;4901421;29;20110;-90
2021/09/06 05:44:55;;;;;;;4.68;2.22;;;;;;;;;;4902344;29;20493;-92
2021/09/06 05:47:21;;;;;;;9.50;2.83;;;;;;;;;;4901374;29;20036;-90
2021/09/06 05:49:48;;;;;;;4.43;1.77;;;;;;;;;;4901465;29;20039;-92
2021/09/06 05:52:14;;;;;;;4.93;2.03;;;;;;;;;;4901255;29;20485;-91
2021/09/06 05:54:40;;;;;;;2.92;1.40;;;;;;;;;;4901385;29;20036;-92
2021/09/06 05:57:06;;;;;;;6.25;2.17;;;;;;;;;;4901195;29;20193;-92
2021/09/06 05:59:32;;;;;;;3.78;1.65;;;;;;;;;;4901012;29;20040;-92
2021/09/06 06:01:58;;;;;;;3.25;1.88;;;;;;;;;;4884247;29;20067;-91
2021/09/06 06:04:25;;;;;;;7.18;1.70;;;;;;;;;;4884848;29;20466;-93
2021/09/06 06:06:51;;;;;;;3.55;1.30;;;;;;;;;;4883615;29;20024;-92
2021/09/06 06:09:17;;;;;;;3.63;1.10;;;;;;;;;;4882318;29;20092;-91
2021/09/06 06:11:43;;;;;;;4.00;1.35;;;;;;;;;;4885086;29;20033;-91
2021/09/06 06:14:09;;;;;;;3.25;1.27;;;;;;;;;;4886107;29;20108;-92
2021/09/06 06:16:36;;;;;;;2.67;1.20;;;;;;;;;;4889283;29;20020;-90
2021/09/06 06:19:02;;;;;;;2.40;1.20;;;;;;;;;;4885866;29;20489;-91
2021/09/06 06:21:28;;;;;;;2.05;1.00;;;;;;;;;;4902779;29;20036;-90
2021/09/06 06:23:55;;;;;;;3.97;1.45;;;;;;;;;;4885909;29;20486;-89
2021/09/06 06:26:23;;;;;;;4.95;1.35;;;;;;;;;;4886862;29;20055;-89
2021/09/06 06:28:49;;;;;;;2.88;1.15;;;;;;;;;;4894420;29;20033;-90
2021/09/06 06:31:15;;;;;;;4.65;1.17;;;;;;;;;;4886096;29;20032;-90
2021/09/06 06:33:41;;;;;;;3.70;1.13;;;;;;;;;;4886154;29;20045;-92
2021/09/06 06:36:07;;;;;;;2.53;1.17;;;;;;;;;;4886776;29;20067;-93
2021/09/06 06:38:35;;;;;;;2.50;1.20;;;;;;;;;;4886420;29;20092;-89
2021/09/06 06:41:02;;;;;;;2.35;1.08;;;;;;;;;;4885431;29;20053;-90
2021/09/06 06:43:28;;;;;;;2.45;1.10;;;;;;;;;;4885662;29;20052;-90
2021/09/06 06:45:54;;;;;;;5.20;1.15;;;;;;;;;;4885437;29;20025;-91
2021/09/06 06:48:21;;;;;;;2.70;1.30;;;;;;;;;;4886361;29;20394;-92
2021/09/06 06:50:47;;;;;;;2.10;1.00;;;;;;;;;;4887235;29;20055;-88
2021/09/06 06:53:13;;;;;;;4.13;0.98;;;;;;;;;;4885553;29;20160;-90
2021/09/06 06:55:39;;;;;;;5.10;1.27;;;;;;;;;;4885983;29;20069;-90
2021/09/06 06:58:05;;;;;;;4.05;1.25;;;;;;;;;;4887709;29;20039;-91
2021/09/06 07:00:31;;;;;;;2.13;0.90;;;;;;;;;;4885218;29;20036;-92
2021/09/06 07:02:57;;;;;;;4.55;1.30;;;;;;;;;;4885311;29;20029;-91
2021/09/06 07:05:24;;;;;;;2.30;1.00;;;;;;;;;;4885067;29;20085;-91
2021/09/06 07:07:50;;;;;;;3.15;1.30;;;;;;;;;;4885183;29;20039;-91
2021/09/06 07:10:16;;;;;;;2.58;1.05;;;;;;;;;;4885222;29;20052;-89
2021/09/06 07:12:42;;;;;;;4.85;1.27;;;;;;;;;;4885087;29;20070;-91
2021/09/06 07:15:09;;;;;;;4.30;1.27;;;;;;;;;;4892610;29;20067;-91
2021/09/06 07:17:36;;;;;;;2.80;1.33;;;;;;;;;;4884988;29;20107;-91
2021/09/06 07:20:02;;;;;;;2.33;1.10;;;;;;;;;;4884991;29;20541;-93
2021/09/06 07:22:28;;;;;;;4.38;1.33;;;;;;;;;;4886608;29;20394;-90
2021/09/06 07:24:54;;;;;;;3.00;1.23;;;;;;;;;;4884994;29;20478;-92
2021/09/06 07:27:21;;;;;;;2.92;1.50;;;;;;;;;;4886473;29;20032;-91
2021/09/06 07:29:47;;;;;;;2.80;1.17;;;;;;;;;;4885211;29;20485;-91
2021/09/06 07:32:13;;;;;;;2.55;1.15;;;;;;;;;;4884794;29;20031;-92
2021/09/06 07:34:39;;;;;;;5.65;1.40;;;;;;;;;;4884918;29;20135;-92
2021/09/06 07:37:06;;;;;;;20.50;1.40;;;;;;;;;;4884816;29;20032;-92
2021/09/06 07:39:33;;;;;;;5.75;1.35;;;;;;;;;;4884429;29;20053;-92
2021/09/06 07:41:59;;;;;;;2.60;1.20;;;;;;;;;;4884607;29;20028;-92
2021/09/06 07:44:25;;;;;;;3.17;1.20;;;;;;;;;;4884607;29;20119;-92
2021/09/06 07:46:52;;;;;;;3.78;1.02;;;;;;;;;;4884502;29;20111;-92
2021/09/06 07:49:19;;;;;;;3.25;1.38;;;;;;;;;;4884839;29;20478;-92
2021/09/06 07:51:54;;;;;;;2.45;1.17;;;;;;;;;;4884895;29;20057;-92
2021/09/06 07:54:24;;;;;;;4.40;1.40;;;;;;;;;;4884522;29;20040;-92
2021/09/06 07:56:51;;;;;;;2.60;1.15;;;;;;;;;;4884401;29;20521;-92
2021/09/06 07:59:17;;;;;;;2.80;1.40;;;;;;;;;;4884555;29;20028;-92
2021/09/06 08:01:44;;;;;;;2.55;1.20;;;;;;;;;;4884859;29;20057;-92
2021/09/06 08:04:10;;;;;;;2.03;1.10;;;;;;;;;;4885355;29;20393;-93
2021/09/06 08:06:36;;;;;;;4.50;1.02;;;;;;;;;;4884538;29;20032;-93
2021/09/06 08:09:03;;;;;;;5.35;1.30;;;;;;;;;;4884184;29;20115;-92
2021/09/06 08:11:29;;;;;;;3.65;1.25;;;;;;;;;;4885468;29;20036;-92
2021/09/06 08:13:55;;;;;;;3.25;1.38;;;;;;;;;;4884178;29;20127;-92
2021/09/06 08:16:22;;;;;;;2.88;1.20;;;;;;;;;;4883965;29;20029;-91
2021/09/06 08:18:48;;;;;;;2.45;1.00;;;;;;;;;;4883886;29;20028;-92
2021/09/06 08:21:14;;;;;;;4.10;1.17;;;;;;;;;;4884156;29;20033;-92
2021/09/06 08:23:40;;;;;;;5.18;1.30;;;;;;;;;;4884402;29;20029;-91
2021/09/06 08:26:06;;;;;;;2.63;1.10;;;;;;;;;;4884037;29;20029;-93
2021/09/06 08:28:32;;;;;;;2.40;1.27;;;;;;;;;;4883903;29;20394;-92
2021/09/06 08:30:59;;;;;;;4.22;1.05;;;;;;;;;;4884050;29;20025;-92
2021/09/06 08:33:25;;;;;;;2.10;1.10;;;;;;;;;;4883347;29;20041;-92
2021/09/06 08:35:51;;;;;;;3.28;1.00;;;;;;;;;;4886544;29;20039;-93
2021/09/06 08:38:20;;;;;;;2.70;1.30;;;;;;;;;;4885224;29;20036;-91
2021/09/06 08:40:46;;;;;;;6.82;1.35;;;;;;;;;;4883908;29;20060;-90
2021/09/06 08:43:13;;;;;;;2.42;1.17;;;;;;;;;;4883999;29;20160;-91
2021/09/06 08:45:39;;;;;;;3.95;1.00;;;;;;;;;;4883971;29;20024;-91
2021/09/06 08:48:06;;;;;;;3.42;1.08;;;;;;;;;;4883947;29;20024;-91
2021/09/06 08:50:33;;;;;;;2.13;1.00;;;;;;;;;;4884255;29;20029;-92
2021/09/06 08:53:00;;;;;;;2.67;1.13;;;;;;;;;;4883901;29;20120;-91
2021/09/06 08:55:26;;;;;;;5.07;1.33;;;;;;;;;;4880109;29;20037;-91
2021/09/06 08:57:52;;;;;;;3.28;1.15;;;;;;;;;;4880357;29;20048;-92
2021/09/06 09:00:29;;;;;;;2.90;1.35;;;;;;;;;;4924581;23;20624;-90
2021/09/06 09:02:55;;;;;;;3.13;1.13;;;;;;;;;;4914568;29;20059;-91
2021/09/06 09:05:21;;;;;;;2.55;1.17;;;;;;;;;;4902898;29;20032;-92
2021/09/06 09:07:48;;;;;;;3.40;1.38;;;;;;;;;;4903766;29;20111;-92
2021/09/06 09:10:26;;;;;;;3.55;1.27;;;;;;;;;;4901950;29;20024;-91
2021/09/06 09:12:52;;;;;;;2.40;1.10;;;;;;;;;;4901975;29;20111;-92
2021/09/06 09:15:20;;;;;;;2.85;1.35;;;;;;;;;;4901709;29;20481;-91
2021/09/06 09:17:53;;;;;;;3.78;1.30;;;;;;;;;;4901761;29;20024;-91
2021/09/06 09:20:19;;;;;;;8.77;1.50;;;;;;;;;;4903337;29;20036;-92
2021/09/06 09:22:45;;;;;;;4.35;1.63;;;;;;;;;;4902686;29;20055;-90
2021/09/06 09:25:12;;;;;;;3.45;1.33;;;;;;;;;;4901694;29;20039;-91
2021/09/06 09:27:43;;;;;;;3.38;1.20;;;;;;;;;;4902271;29;20025;-90
2021/09/06 09:30:22;;;;;;;3.75;1.27;;;;;;;;;;4901472;29;20370;-91
2021/09/06 09:32:48;;;;;;;3.65;1.33;;;;;;;;;;4902325;29;20065;-91
2021/09/06 09:35:14;;;;;;;5.50;1.40;;;;;;;;;;4901876;29;20486;-90
2021/09/06 09:37:40;;;;;;;4.00;1.55;;;;;;;;;;4901308;29;20032;-90
2021/09/06 09:40:08;;;;;;;2.83;1.40;;;;;;;;;;4905319;29;20128;-91
2021/09/06 09:42:44;;;;;;;4.88;1.70;;;;;;;;;;4901376;29;20477;-91
2021/09/06 09:45:11;;;;;;;8.90;1.63;;;;;;;;;;4901563;29;20032;-88
2021/09/06 09:47:37;;;;;;;3.60;1.60;;;;;;;;;;4901503;29;20112;-90
2021/09/06 09:50:05;;;;;;;6.20;1.50;;;;;;;;;;4901420;29;20215;-89
2021/09/06 09:52:31;;;;;;;3.20;1.60;;;;;;;;;;4901403;29;20441;-90
2021/09/06 09:54:57;;;;;;;2.83;1.48;;;;;;;;;;4902060;29;20040;-89
2021/09/06 09:57:26;;;;;;;3.47;1.80;;;;;;;;;;4901375;29;20020;-91
2021/09/06 09:59:52;;;;;;;5.43;1.50;;;;;;;;;;4900220;29;20521;-90
2021/09/06 10:02:22;;;;;;;2.85;1.40;;;;;;;;;;4882733;29;20079;-90
2021/09/06 10:04:52;;;;;;;6.43;1.42;;;;;;;;;;4883279;29;20033;-90
2021/09/06 10:07:19;;;;;;;3.92;1.52;;;;;;;;;;4882770;29;20117;-88
2021/09/06 10:09:46;;;;;;;6.50;1.80;;;;;;;;;;4882332;29;20486;-91
2021/09/06 10:12:20;;;;;;;6.03;1.75;;;;;;;;;;4899977;29;20040;-90
2021/09/06 10:14:50;;;;;;;5.95;1.75;;;;;;;;;;4882860;29;20043;-92
2021/09/06 10:17:16;;;;;;;3.47;1.52;;;;;;;;;;4882761;29;20040;-91
2021/09/06 10:19:43;;;;;;;3.17;1.50;;;;;;;;;;4882213;29;20028;-93
2021/09/06 10:22:30;;;;;;;2.95;1.65;;;;;;;;;;4882182;29;20025;-91
2021/09/06 10:25:00;;;;;;;2.30;1.23;;;;;;;;;;4882201;29;20501;-90
2021/09/06 10:27:28;;;;;;;3.63;1.60;;;;;;;;;;4882509;29;20032;-91
2021/09/06 10:30:01;;;;;;;4.00;1.52;;;;;;;;;;4883505;29;20089;-91
2021/09/06 10:32:34;;;;;;;3.15;1.67;;;;;;;;;;4882180;29;20033;-90
2021/09/06 10:35:04;;;;;;;3.25;1.60;;;;;;;;;;4898707;29;20124;-91
2021/09/06 10:37:34;;;;;;;3.03;1.20;;;;;;;;;;4882439;29;20060;-90
2021/09/06 10:40:00;;;;;;;3.20;1.33;;;;;;;;;;4882084;29;20033;-91
2021/09/06 10:42:31;;;;;;;4.35;1.73;;;;;;;;;;4882615;29;20032;-91
2021/09/06 10:44:58;;;;;;;4.30;1.58;;;;;;;;;;4882450;29;20063;-83
2021/09/06 10:47:24;;;;;;;3.08;1.52;;;;;;;;;;4882219;29;20092;-88
2021/09/06 10:49:53;;;;;;;3.80;1.70;;;;;;;;;;4881969;29;20071;-91
2021/09/06 10:52:25;;;;;;;4.28;1.55;;;;;;;;;;4882122;29;20029;-93
2021/09/06 10:54:51;;;;;;;4.03;2.13;;;;;;;;;;4882286;29;20043;-91
2021/09/06 10:57:17;;;;;;;5.57;1.80;;;;;;;;;;4882491;29;20492;-90
2021/09/06 10:59:45;;;;;;;2.90;1.65;;;;;;;;;;4885273;29;20028;-91
2021/09/06 11:02:11;;;;;;;3.45;1.65;;;;;;;;;;4886023;29;20059;-91
2021/09/06 11:04:39;;;;;;;3.28;1.88;;;;;;;;;;4885973;29;20474;-90
2021/09/06 11:07:07;;;;;;;13.43;2.03;;;;;;;;;;4885498;29;20119;-89
2021/09/06 11:09:34;;;;;;;3.38;1.63;;;;;;;;;;4890762;29;20503;-91
2021/09/06 11:12:01;;;;;;;3.80;1.70;;;;;;;;;;4885701;29;20060;-91
2021/09/06 11:14:34;;;;;;;4.50;1.80;;;;;;;;;;4885108;29;20048;-91
2021/09/06 11:17:00;;;;;;;3.60;1.92;;;;;;;;;;4885384;29;20482;-88
2021/09/06 11:19:28;;;;;;;7.25;1.90;;;;;;;;;;4885505;29;20033;-87
2021/09/06 11:21:58;;;;;;;4.32;1.50;;;;;;;;;;4886667;29;20024;-88
2021/09/06 11:24:26;;;;;;;5.45;1.75;;;;;;;;;;4884715;29;20036;-89
2021/09/06 11:26:52;;;;;;;5.50;2.03;;;;;;;;;;4885475;29;20029;-89
2021/09/06 11:29:19;;;;;;;3.90;1.70;;;;;;;;;;4886525;29;20032;-90
2021/09/06 11:31:49;;;;;;;3.92;1.60;;;;;;;;;;4886439;29;20028;-91
2021/09/06 11:34:15;;;;;;;3.83;1.67;;;;;;;;;;4884792;29;20036;-89
2021/09/06 11:36:45;;;;;;;3.13;1.67;;;;;;;;;;4885346;29;20123;-89
2021/09/06 11:39:11;;;;;;;3.60;2.10;;;;;;;;;;4884545;29;20028;-89
2021/09/06 11:41:37;;;;;;;7.35;1.60;;;;;;;;;;4884462;29;20033;-91
2021/09/06 11:44:05;;;;;;;3.97;1.83;;;;;;;;;;4885094;29;20028;-92
2021/09/06 11:46:31;;;;;;;3.05;1.80;;;;;;;;;;4884391;29;20032;-91
2021/09/06 11:49:00;;;;;;;7.13;1.98;;;;;;;;;;4887313;29;20008;-90
2021/09/06 11:51:26;;;;;;;7.47;2.10;;;;;;;;;;4884692;29;20033;-92
2021/09/06 11:53:56;;;;;;;4.97;2.40;;;;;;;;;;4884776;29;20136;-92
2021/09/06 11:56:23;;;;;;;5.57;2.15;;;;;;;;;;4888174;29;20021;-90
2021/09/06 11:58:49;;;;;;;5.80;2.13;;;;;;;;;;4884123;29;20044;-90
2021/09/06 12:01:15;;;;;;;4.70;1.83;;;;;;;;;;4884268;29;20051;-91
2021/09/06 12:03:45;;;;;;;8.25;2.00;;;;;;;;;;4885238;29;20059;-90
2021/09/06 12:06:13;;;;;;;3.25;1.70;;;;;;;;;;4884231;29;20032;-91
2021/09/06 12:08:50;;;;;;;4.32;1.90;;;;;;;;;;4884073;29;20029;-90
2021/09/06 12:11:16;;;;;;;4.18;2.03;;;;;;;;;;4886740;29;20033;-93
2021/09/06 12:13:42;;;;;;;3.80;1.83;;;;;;;;;;4887266;29;20072;-91
2021/09/06 12:16:09;;;;;;;3.85;1.98;;;;;;;;;;4887519;29;20397;-91
2021/09/06 12:18:40;;;;;;;5.30;1.80;;;;;;;;;;4884757;29;20055;-91
2021/09/06 12:21:13;;;;;;;4.63;2.25;;;;;;;;;;4884001;29;20474;-92
2021/09/06 12:23:40;;;;;;;3.65;1.75;;;;;;;;;;4883834;29;20111;-94
2021/09/06 12:26:08;;;;;;;6.45;2.10;;;;;;;;;;4884632;29;20055;-90
2021/09/06 12:28:34;;;;;;;5.53;2.17;;;;;;;;;;4884093;29;20029;-91
2021/09/06 12:31:04;;;;;;;3.35;1.70;;;;;;;;;;4883583;29;20040;-89
2021/09/06 12:33:31;;;;;;;5.53;2.45;;;;;;;;;;4885705;29;20032;-91
2021/09/06 12:36:00;;;;;;;6.18;2.13;;;;;;;;;;4883642;29;20104;-90
2021/09/06 12:38:26;;;;;;;4.50;1.90;;;;;;;;;;4883588;29;20067;-91
2021/09/06 12:40:53;;;;;;;6.82;1.98;;;;;;;;;;4883673;29;20029;-90
2021/09/06 12:43:19;;;;;;;5.32;1.90;;;;;;;;;;4883932;29;20025;-89
2021/09/06 12:45:45;;;;;;;5.38;2.28;;;;;;;;;;4884241;29;20052;-90
2021/09/06 12:48:12;;;;;;;4.22;2.22;;;;;;;;;;4883427;29;20024;-90
2021/09/06 12:50:38;;;;;;;4.63;2.40;;;;;;;;;;4884000;29;20486;-91
2021/09/06 12:53:05;;;;;;;6.32;2.63;;;;;;;;;;4883410;29;20071;-91
2021/09/06 12:55:32;;;;;;;5.07;2.50;;;;;;;;;;4883162;29;20099;-91
2021/09/06 12:58:01;;;;;;;6.43;2.53;;;;;;;;;;4883729;29;20035;-93
2021/09/06 13:00:28;;;;;;;4.80;2.50;;;;;;;;;;4889936;29;20052;-93
2021/09/06 13:02:55;;;;;;;7.55;2.40;;;;;;;;;;4885086;29;20024;-91
2021/09/06 13:05:21;;;;;;;6.70;2.38;;;;;;;;;;4883373;29;20036;-91
2021/09/06 13:07:47;;;;;;;10.35;2.67;;;;;;;;;;4883179;29;20032;-91
2021/09/06 13:10:14;;;;;;;8.25;2.90;;;;;;;;;;4882869;29;20035;-91
2021/09/06 13:12:40;;;;;;;6.40;2.53;;;;;;;;;;4883129;29;20040;-92
2021/09/06 13:15:07;;;;;;;6.78;2.85;;;;;;;;;;4883109;29;20036;-92
2021/09/06 13:17:33;;;;;;;7.95;2.53;;;;;;;;;;4882833;29;20064;-92
2021/09/06 13:19:59;;;;;;;8.80;2.75;;;;;;;;;;4882379;29;20065;-92
2021/09/06 13:22:25;;;;;;;8.93;2.45;;;;;;;;;;4882980;29;20055;-91
2021/09/06 13:24:52;;;;;;;4.25;2.10;;;;;;;;;;4882813;29;20095;-91
2021/09/06 13:27:18;;;;;;;4.47;2.22;;;;;;;;;;4882768;29;20028;-93
2021/09/06 13:29:45;;;;;;;5.90;2.83;;;;;;;;;;4882986;29;20040;-92
2021/09/06 13:32:12;;;;;;;5.60;3.00;;;;;;;;;;4882924;29;20051;-92
2021/09/06 13:34:38;;;;;;;5.15;2.72;;;;;;;;;;4882766;29;20043;-92
2021/09/06 13:37:04;;;;;;;5.75;2.83;;;;;;;;;;4882611;29;20028;-93
2021/09/06 13:39:31;;;;;;;6.90;2.88;;;;;;;;;;4883067;29;20032;-90
2021/09/06 13:41:58;;;;;;;14.88;3.25;;;;;;;;;;4882956;29;20571;-91
2021/09/06 13:44:24;;;;;;;5.75;2.92;;;;;;;;;;4882750;29;20032;-91
2021/09/06 13:46:51;;;;;;;6.68;3.00;;;;;;;;;;4882742;29;20089;-93
2021/09/06 13:49:18;;;;;;;5.60;3.10;;;;;;;;;;4881880;29;20036;-90
2021/09/06 13:51:45;;;;;;;7.50;3.22;;;;;;;;;;4883645;29;20025;-91
2021/09/06 13:54:12;;;;;;;6.55;2.90;;;;;;;;;;4882470;29;20037;-92
2021/09/06 13:56:38;;;;;;;5.35;2.80;;;;;;;;;;4882721;29;20375;-93
2021/09/06 13:59:04;;;;;;;5.75;2.85;;;;;;;;;;4884261;29;20032;-92
2021/09/06 14:01:31;;;;;;;5.68;2.72;;;;;;;;;;4881166;29;20147;-90
2021/09/06 14:03:57;;;;;;;6.00;2.55;;;;;;;;;;4879131;29;20031;-91
2021/09/06 14:06:23;;;;;;;5.32;2.67;;;;;;;;;;4884211;29;20124;-91
2021/09/06 14:08:49;;;;;;;5.80;3.33;;;;;;;;;;4882482;29;20033;-91
2021/09/06 14:11:15;;;;;;;5.78;2.92;;;;;;;;;;4882558;29;20029;-90
2021/09/06 14:13:41;;;;;;;5.72;2.83;;;;;;;;;;4883452;29;20087;-91
2021/09/06 14:16:08;;;;;;;9.20;3.03;;;;;;;;;;4899056;29;20033;-91
2021/09/06 14:18:37;;;;;;;5.13;2.58;;;;;;;;;;4882646;29;20041;-91
2021/09/06 14:21:03;;;;;;;6.13;2.85;;;;;;;;;;4884082;29;20033;-89
2021/09/06 14:23:29;;;;;;;6.28;3.30;;;;;;;;;;4883566;29;20035;-90
2021/09/06 14:25:59;;;;;;;10.23;3.47;;;;;;;;;;4883411;29;20040;-91
2021/09/06 14:28:25;;;;;;;7.15;3.13;;;;;;;;;;4883674;29;20028;-91
2021/09/06 14:30:51;;;;;;;6.80;3.38;;;;;;;;;;4883549;29;20035;-89
2021/09/06 14:33:18;;;;;;;10.63;3.50;;;;;;;;;;4886503;29;20031;-91
2021/09/06 14:35:44;;;;;;;7.20;3.33;;;;;;;;;;4887923;29;20493;-90
2021/09/06 14:38:13;;;;;;;5.95;3.13;;;;;;;;;;4887949;29;20032;-89
2021/09/06 14:40:40;;;;;;;7.72;3.50;;;;;;;;;;4885707;29;20053;-89